sensor_id;sensor_type;location;lat;lon;timestamp;pressure;altitude;pressure_sealevel;temperature;humidity
55490;BME280;44029;52.956;4.772;2023-02-28T00:00:20;103473.56;;;6.24;100.00
55490;BME280;44029;52.956;4.772;2023-02-28T00:02:45;103472.84;;;6.40;100.00
55490;BME280;44029;52.956;4.772;2023-02-28T00:05:14;103474.41;;;6.43;100.00
55490;BME280;44029;52.956;4.772;2023-02-28T00:07:40;103465.91;;;6.46;100.00
55490;BME280;44029;52.956;4.772;2023-02-28T00:10:08;103465.91;;;6.46;100.00
55490;BME280;44029;52.956;4.772;2023-02-28T00:12:35;103465.16;;;6.35;100.00
55490;BME280;44029;52.956;4.772;2023-02-28T00:15:01;103462.84;;;6.23;100.00
55490;BME280;44029;52.956;4.772;2023-02-28T00:17:27;103469.22;;;6.31;100.00
55490;BME280;44029;52.956;4.772;2023-02-28T00:19:52;103463.81;;;6.39;100.00
55490;BME280;44029;52.956;4.772;2023-02-28T00:22:19;103459.16;;;6.32;100.00
55490;BME280;44029;52.956;4.772;2023-02-28T00:24:45;103468.19;;;6.32;100.00
55490;BME280;44029;52.956;4.772;2023-02-28T00:27:11;103473.47;;;6.34;100.00
55490;BME280;44029;52.956;4.772;2023-02-28T00:29:37;103463.78;;;6.31;100.00
55490;BME280;44029;52.956;4.772;2023-02-28T00:32:03;103458.75;;;6.45;100.00
55490;BME280;44029;52.956;4.772;2023-02-28T00:34:28;103460.00;;;6.32;100.00
55490;BME280;44029;52.956;4.772;2023-02-28T00:36:54;103457.25;;;6.24;100.00
55490;BME280;44029;52.956;4.772;2023-02-28T00:39:19;103455.22;;;6.26;100.00
55490;BME280;44029;52.956;4.772;2023-02-28T00:41:44;103450.59;;;6.27;100.00
55490;BME280;44029;52.956;4.772;2023-02-28T00:44:10;103454.91;;;6.29;100.00
55490;BME280;44029;52.956;4.772;2023-02-28T00:46:35;103458.31;;;6.31;100.00
55490;BME280;44029;52.956;4.772;2023-02-28T00:49:00;103451.16;;;6.30;100.00
55490;BME280;44029;52.956;4.772;2023-02-28T00:51:26;103442.06;;;6.22;100.00
55490;BME280;44029;52.956;4.772;2023-02-28T00:53:51;103439.56;;;6.28;100.00
55490;BME280;44029;52.956;4.772;2023-02-28T00:56:17;103447.03;;;6.26;100.00
55490;BME280;44029;52.956;4.772;2023-02-28T00:58:42;103444.47;;;6.25;100.00
55490;BME280;44029;52.956;4.772;2023-02-28T01:01:07;103439.03;;;6.25;100.00
55490;BME280;44029;52.956;4.772;2023-02-28T01:03:33;103442.44;;;6.27;100.00
55490;BME280;44029;52.956;4.772;2023-02-28T01:05:58;103439.09;;;6.33;100.00
55490;BME280;44029;52.956;4.772;2023-02-28T01:08:23;103443.13;;;6.29;100.00
55490;BME280;44029;52.956;4.772;2023-02-28T01:10:49;103448.50;;;6.38;100.00
55490;BME280;44029;52.956;4.772;2023-02-28T01:13:14;103442.59;;;6.25;100.00
55490;BME280;44029;52.956;4.772;2023-02-28T01:15:43;103443.16;;;6.55;100.00
55490;BME280;44029;52.956;4.772;2023-02-28T01:18:11;103441.09;;;6.49;100.00
55490;BME280;44029;52.956;4.772;2023-02-28T01:20:37;103435.91;;;6.37;100.00
55490;BME280;44029;52.956;4.772;2023-02-28T01:23:03;103440.34;;;6.38;100.00
55490;BME280;44029;52.956;4.772;2023-02-28T01:25:28;103434.91;;;6.38;100.00
55490;BME280;44029;52.956;4.772;2023-02-28T01:27:53;103434.81;;;6.30;100.00
55490;BME280;44029;52.956;4.772;2023-02-28T01:30:19;103434.25;;;6.45;100.00
55490;BME280;44029;52.956;4.772;2023-02-28T01:32:44;103442.03;;;6.39;100.00
55490;BME280;44029;52.956;4.772;2023-02-28T01:35:10;103436.06;;;6.36;100.00
55490;BME280;44029;52.956;4.772;2023-02-28T01:37:35;103423.09;;;6.30;100.00
55490;BME280;44029;52.956;4.772;2023-02-28T01:40:01;103436.28;;;6.43;100.00
55490;BME280;44029;52.956;4.772;2023-02-28T01:42:26;103433.56;;;6.43;100.00
55490;BME280;44029;52.956;4.772;2023-02-28T01:47:29;103422.88;;;6.49;100.00
55490;BME280;44029;52.956;4.772;2023-02-28T01:49:55;103423.28;;;6.36;100.00
55490;BME280;44029;52.956;4.772;2023-02-28T01:52:22;103414.13;;;6.64;100.00
55490;BME280;44029;52.956;4.772;2023-02-28T01:54:52;103410.50;;;6.81;100.00
55490;BME280;44029;52.956;4.772;2023-02-28T01:57:21;103405.75;;;6.83;100.00
55490;BME280;44029;52.956;4.772;2023-02-28T01:59:57;103392.66;;;6.87;100.00
55490;BME280;44029;52.956;4.772;2023-02-28T02:02:26;103391.16;;;6.66;100.00
55490;BME280;44029;52.956;4.772;2023-02-28T02:05:16;103382.19;;;6.74;100.00
55490;BME280;44029;52.956;4.772;2023-02-28T02:07:43;103378.56;;;6.65;100.00
55490;BME280;44029;52.956;4.772;2023-02-28T02:10:16;103379.56;;;6.64;100.00
55490;BME280;44029;52.956;4.772;2023-02-28T02:15:42;103377.38;;;6.68;100.00
55490;BME280;44029;52.956;4.772;2023-02-28T02:21:10;103367.59;;;6.83;100.00
55490;BME280;44029;52.956;4.772;2023-02-28T02:29:59;103366.41;;;6.86;100.00
55490;BME280;44029;52.956;4.772;2023-02-28T02:32:45;103365.41;;;6.87;100.00
55490;BME280;44029;52.956;4.772;2023-02-28T02:40:23;103366.72;;;6.83;100.00
55490;BME280;44029;52.956;4.772;2023-02-28T02:43:01;103361.91;;;6.68;100.00
55490;BME280;44029;52.956;4.772;2023-02-28T02:45:47;103363.28;;;6.72;100.00
55490;BME280;44029;52.956;4.772;2023-02-28T02:48:17;103358.13;;;6.61;100.00
55490;BME280;44029;52.956;4.772;2023-02-28T02:50:46;103358.16;;;6.69;100.00
55490;BME280;44029;52.956;4.772;2023-02-28T02:53:13;103368.88;;;6.71;100.00
55490;BME280;44029;52.956;4.772;2023-02-28T02:55:44;103366.16;;;6.71;100.00
55490;BME280;44029;52.956;4.772;2023-02-28T02:58:15;103366.59;;;6.58;100.00
55490;BME280;44029;52.956;4.772;2023-02-28T03:00:47;103369.53;;;6.65;100.00
55490;BME280;44029;52.956;4.772;2023-02-28T03:03:14;103360.69;;;6.63;100.00
55490;BME280;44029;52.956;4.772;2023-02-28T03:05:48;103367.38;;;6.76;100.00
55490;BME280;44029;52.956;4.772;2023-02-28T03:08:14;103370.69;;;6.62;100.00
55490;BME280;44029;52.956;4.772;2023-02-28T03:13:37;103370.97;;;6.51;100.00
55490;BME280;44029;52.956;4.772;2023-02-28T03:16:32;103374.81;;;6.66;100.00
55490;BME280;44029;52.956;4.772;2023-02-28T03:21:34;103372.44;;;6.71;100.00
55490;BME280;44029;52.956;4.772;2023-02-28T03:24:08;103373.44;;;6.62;100.00
55490;BME280;44029;52.956;4.772;2023-02-28T03:26:40;103370.38;;;6.65;100.00
55490;BME280;44029;52.956;4.772;2023-02-28T03:29:25;103364.78;;;6.67;100.00
55490;BME280;44029;52.956;4.772;2023-02-28T03:32:08;103369.03;;;6.69;100.00
55490;BME280;44029;52.956;4.772;2023-02-28T03:34:45;103359.66;;;6.64;100.00
55490;BME280;44029;52.956;4.772;2023-02-28T03:37:16;103360.69;;;6.63;100.00
55490;BME280;44029;52.956;4.772;2023-02-28T03:39:47;103366.91;;;6.55;100.00
55490;BME280;44029;52.956;4.772;2023-02-28T03:42:19;103366.22;;;6.53;100.00
55490;BME280;44029;52.956;4.772;2023-02-28T03:45:04;103358.47;;;6.66;100.00
55490;BME280;44029;52.956;4.772;2023-02-28T03:47:45;103357.44;;;6.59;100.00
55490;BME280;44029;52.956;4.772;2023-02-28T03:50:18;103357.44;;;6.59;100.00
55490;BME280;44029;52.956;4.772;2023-02-28T03:53:09;103354.41;;;6.70;100.00
55490;BME280;44029;52.956;4.772;2023-02-28T03:55:44;103351.16;;;6.67;100.00
55490;BME280;44029;52.956;4.772;2023-02-28T04:01:56;103343.84;;;6.67;100.00
55490;BME280;44029;52.956;4.772;2023-02-28T04:04:04;103338.84;;;6.54;100.00
55490;BME280;44029;52.956;4.772;2023-02-28T04:06:31;103338.69;;;6.56;100.00
55490;BME280;44029;52.956;4.772;2023-02-28T04:08:57;103339.34;;;6.50;100.00
55490;BME280;44029;52.956;4.772;2023-02-28T04:11:23;103329.59;;;6.47;100.00
55490;BME280;44029;52.956;4.772;2023-02-28T04:13:52;103330.13;;;6.51;100.00
55490;BME280;44029;52.956;4.772;2023-02-28T04:16:18;103338.31;;;6.51;100.00
55490;BME280;44029;52.956;4.772;2023-02-28T04:18:44;103339.06;;;6.61;100.00
55490;BME280;44029;52.956;4.772;2023-02-28T04:21:10;103335.72;;;6.49;100.00
55490;BME280;44029;52.956;4.772;2023-02-28T04:23:36;103340.34;;;6.49;100.00
55490;BME280;44029;52.956;4.772;2023-02-28T04:26:01;103347.81;;;6.47;100.00
55490;BME280;44029;52.956;4.772;2023-02-28T04:28:27;103339.81;;;6.45;100.00
55490;BME280;44029;52.956;4.772;2023-02-28T04:31:01;103348.63;;;6.73;100.00
55490;BME280;44029;52.956;4.772;2023-02-28T04:33:27;103339.69;;;6.55;100.00
55490;BME280;44029;52.956;4.772;2023-02-28T04:36:06;103345.88;;;6.65;100.00
55490;BME280;44029;52.956;4.772;2023-02-28T04:38:35;103328.47;;;6.58;100.00
55490;BME280;44029;52.956;4.772;2023-02-28T04:41:01;103332.16;;;6.49;100.00
55490;BME280;44029;52.956;4.772;2023-02-28T04:43:27;103331.34;;;6.56;100.00
55490;BME280;44029;52.956;4.772;2023-02-28T04:45:54;103329.97;;;6.52;100.00
55490;BME280;44029;52.956;4.772;2023-02-28T04:48:25;103328.91;;;6.45;100.00
55490;BME280;44029;52.956;4.772;2023-02-28T04:50:52;103337.59;;;6.49;100.00
55490;BME280;44029;52.956;4.772;2023-02-28T04:53:18;103334.03;;;6.48;100.00
55490;BME280;44029;52.956;4.772;2023-02-28T04:55:44;103336.78;;;6.56;100.00
55490;BME280;44029;52.956;4.772;2023-02-28T04:58:10;103338.69;;;6.56;100.00
55490;BME280;44029;52.956;4.772;2023-02-28T05:00:35;103341.41;;;6.56;100.00
55490;BME280;44029;52.956;4.772;2023-02-28T05:03:01;103341.53;;;6.46;100.00
55490;BME280;44029;52.956;4.772;2023-02-28T05:05:26;103336.63;;;6.58;100.00
55490;BME280;44029;52.956;4.772;2023-02-28T05:07:51;103337.59;;;6.49;100.00
55490;BME280;44029;52.956;4.772;2023-02-28T05:10:18;103337.69;;;6.57;100.00
55490;BME280;44029;52.956;4.772;2023-02-28T05:12:44;103335.94;;;6.56;100.00
55490;BME280;44029;52.956;4.772;2023-02-28T05:15:12;103336.84;;;6.65;100.00
55490;BME280;44029;52.956;4.772;2023-02-28T05:17:38;103331.03;;;6.60;100.00
55490;BME280;44029;52.956;4.772;2023-02-28T05:20:04;103327.41;;;6.51;100.00
55490;BME280;44029;52.956;4.772;2023-02-28T05:22:30;103330.47;;;6.48;100.00
55490;BME280;44029;52.956;4.772;2023-02-28T05:24:55;103330.13;;;6.51;100.00
55490;BME280;44029;52.956;4.772;2023-02-28T05:27:20;103338.84;;;6.54;100.00
55490;BME280;44029;52.956;4.772;2023-02-28T05:29:46;103337.31;;;6.52;100.00
55490;BME280;44029;52.956;4.772;2023-02-28T05:32:12;103334.06;;;6.56;100.00
55490;BME280;44029;52.956;4.772;2023-02-28T05:34:38;103344.44;;;6.53;100.00
55490;BME280;44029;52.956;4.772;2023-02-28T05:37:04;103337.69;;;6.57;100.00
55490;BME280;44029;52.956;4.772;2023-02-28T05:39:30;103341.19;;;6.49;100.00
55490;BME280;44029;52.956;4.772;2023-02-28T05:41:55;103345.25;;;6.45;100.00
55490;BME280;44029;52.956;4.772;2023-02-28T05:44:20;103348.50;;;6.49;100.00
55490;BME280;44029;52.956;4.772;2023-02-28T05:46:46;103349.53;;;6.48;100.00
55490;BME280;44029;52.956;4.772;2023-02-28T05:49:11;103355.16;;;6.54;100.00
55490;BME280;44029;52.956;4.772;2023-02-28T05:51:36;103349.53;;;6.48;100.00
55490;BME280;44029;52.956;4.772;2023-02-28T05:54:05;103349.00;;;6.44;100.00
55490;BME280;44029;52.956;4.772;2023-02-28T05:56:30;103353.63;;;6.52;100.00
55490;BME280;44029;52.956;4.772;2023-02-28T05:58:55;103343.81;;;6.59;100.00
55490;BME280;44029;52.956;4.772;2023-02-28T06:01:31;103344.06;;;6.74;100.00
55490;BME280;44029;52.956;4.772;2023-02-28T06:04:01;103355.25;;;6.71;100.00
55490;BME280;44029;52.956;4.772;2023-02-28T06:06:28;103351.97;;;6.59;100.00
55490;BME280;44029;52.956;4.772;2023-02-28T06:08:55;103344.13;;;6.56;100.00
55490;BME280;44029;52.956;4.772;2023-02-28T06:11:20;103350.75;;;6.53;100.00
55490;BME280;44029;52.956;4.772;2023-02-28T06:13:46;103348.03;;;6.53;100.00
55490;BME280;44029;52.956;4.772;2023-02-28T06:16:11;103342.25;;;6.56;100.00
55490;BME280;44029;52.956;4.772;2023-02-28T06:18:37;103343.59;;;6.52;100.00
55490;BME280;44029;52.956;4.772;2023-02-28T06:21:03;103344.13;;;6.56;100.00
55490;BME280;44029;52.956;4.772;2023-02-28T06:23:28;103332.69;;;6.52;100.00
55490;BME280;44029;52.956;4.772;2023-02-28T06:25:54;103333.53;;;6.53;100.00
55490;BME280;44029;52.956;4.772;2023-02-28T06:28:23;103335.44;;;6.61;100.00
55490;BME280;44029;52.956;4.772;2023-02-28T06:30:49;103332.91;;;6.59;100.00
55490;BME280;44029;52.956;4.772;2023-02-28T06:33:14;103328.63;;;6.56;100.00
55490;BME280;44029;52.956;4.772;2023-02-28T06:35:39;103339.06;;;6.61;100.00
55490;BME280;44029;52.956;4.772;2023-02-28T06:38:05;103345.03;;;6.65;100.00
55490;BME280;44029;52.956;4.772;2023-02-28T06:40:30;103340.44;;;6.65;100.00
55490;BME280;44029;52.956;4.772;2023-02-28T06:42:59;103340.78;;;6.70;100.00
55490;BME280;44029;52.956;4.772;2023-02-28T06:45:24;103338.38;;;6.67;100.00
55490;BME280;44029;52.956;4.772;2023-02-28T06:47:51;103346.78;;;6.74;100.00
55490;BME280;44029;52.956;4.772;2023-02-28T06:50:17;103343.88;;;6.75;100.00
55490;BME280;44029;52.956;4.772;2023-02-28T06:52:44;103343.19;;;6.73;100.00
55490;BME280;44029;52.956;4.772;2023-02-28T06:55:10;103339.59;;;6.73;100.00
55490;BME280;44029;52.956;4.772;2023-02-28T06:57:35;103344.38;;;6.71;100.00
55490;BME280;44029;52.956;4.772;2023-02-28T07:00:07;103347.84;;;6.81;100.00
55490;BME280;44029;52.956;4.772;2023-02-28T07:02:33;103352.31;;;6.64;100.00
55490;BME280;44029;52.956;4.772;2023-02-28T07:04:58;103358.84;;;6.71;100.00
55490;BME280;44029;52.956;4.772;2023-02-28T07:07:23;103347.53;;;6.58;100.00
55490;BME280;44029;52.956;4.772;2023-02-28T07:09:49;103350.88;;;6.78;100.00
55490;BME280;44029;52.956;4.772;2023-02-28T07:12:14;103358.13;;;6.61;100.00
55490;BME280;44029;52.956;4.772;2023-02-28T07:14:39;103358.22;;;6.77;100.00
55490;BME280;44029;52.956;4.772;2023-02-28T07:17:07;103364.69;;;6.85;100.00
55490;BME280;44029;52.956;4.772;2023-02-28T07:19:32;103361.56;;;6.71;100.00
55490;BME280;44029;52.956;4.772;2023-02-28T07:21:58;103362.22;;;6.65;100.00
55490;BME280;44029;52.956;4.772;2023-02-28T07:24:23;103368.22;;;6.77;100.00
55490;BME280;44029;52.956;4.772;2023-02-28T07:26:51;103369.56;;;6.73;100.00
55490;BME280;44029;52.956;4.772;2023-02-28T07:29:16;103368.75;;;6.81;100.00
55490;BME280;44029;52.956;4.772;2023-02-28T07:31:41;103369.44;;;6.83;100.00
55490;BME280;44029;52.956;4.772;2023-02-28T07:34:06;103372.81;;;6.76;100.00
55490;BME280;44029;52.956;4.772;2023-02-28T07:36:32;103370.31;;;6.83;100.00
55490;BME280;44029;52.956;4.772;2023-02-28T07:38:58;103369.66;;;6.89;100.00
55490;BME280;44029;52.956;4.772;2023-02-28T07:41:23;103371.84;;;6.86;100.00
55490;BME280;44029;52.956;4.772;2023-02-28T07:43:53;103376.47;;;6.93;100.00
55490;BME280;44029;52.956;4.772;2023-02-28T07:46:20;103375.94;;;6.82;100.00
55490;BME280;44029;52.956;4.772;2023-02-28T07:48:46;103375.09;;;6.81;100.00
55490;BME280;44029;52.956;4.772;2023-02-28T07:51:12;103370.41;;;6.73;100.00
55490;BME280;44029;52.956;4.772;2023-02-28T07:53:37;103382.06;;;6.84;100.00
55490;BME280;44029;52.956;4.772;2023-02-28T07:56:03;103383.75;;;6.85;100.00
55490;BME280;44029;52.956;4.772;2023-02-28T07:58:29;103374.25;;;6.89;100.00
55490;BME280;44029;52.956;4.772;2023-02-28T08:00:55;103370.84;;;6.87;100.00
55490;BME280;44029;52.956;4.772;2023-02-28T08:03:22;103369.53;;;6.99;100.00
55490;BME280;44029;52.956;4.772;2023-02-28T08:05:48;103366.09;;;6.97;100.00
55490;BME280;44029;52.956;4.772;2023-02-28T08:08:15;103365.13;;;7.06;100.00
55490;BME280;44029;52.956;4.772;2023-02-28T08:10:40;103371.88;;;6.94;100.00
55490;BME280;44029;52.956;4.772;2023-02-28T08:13:06;103369.19;;;7.02;100.00
55490;BME280;44029;52.956;4.772;2023-02-28T08:15:31;103363.09;;;7.08;100.00
55490;BME280;44029;52.956;4.772;2023-02-28T08:17:57;103367.00;;;7.06;100.00
55490;BME280;44029;52.956;4.772;2023-02-28T08:20:23;103373.53;;;7.21;100.00
55490;BME280;44029;52.956;4.772;2023-02-28T08:22:49;103364.13;;;7.07;100.00
55490;BME280;44029;52.956;4.772;2023-02-28T08:25:14;103372.09;;;7.01;100.00
55490;BME280;44029;52.956;4.772;2023-02-28T08:27:40;103372.63;;;7.12;100.00
55490;BME280;44029;52.956;4.772;2023-02-28T08:30:06;103371.09;;;7.10;100.00
55490;BME280;44029;52.956;4.772;2023-02-28T08:32:32;103370.78;;;7.13;100.00
55490;BME280;44029;52.956;4.772;2023-02-28T08:34:58;103378.22;;;7.03;100.00
55490;BME280;44029;52.956;4.772;2023-02-28T08:37:24;103380.09;;;7.02;100.00
55490;BME280;44029;52.956;4.772;2023-02-28T08:39:49;103368.69;;;6.99;100.00
55490;BME280;44029;52.956;4.772;2023-02-28T08:42:14;103367.47;;;7.01;100.00
55490;BME280;44029;52.956;4.772;2023-02-28T08:44:40;103390.59;;;6.89;100.00
55490;BME280;44029;52.956;4.772;2023-02-28T08:47:06;103396.72;;;6.56;100.00
55490;BME280;44029;52.956;4.772;2023-02-28T08:49:31;103401.56;;;6.18;100.00
55490;BME280;44029;52.956;4.772;2023-02-28T08:51:57;103405.19;;;5.91;100.00
55490;BME280;44029;52.956;4.772;2023-02-28T08:54:23;103400.53;;;5.66;100.00
55490;BME280;44029;52.956;4.772;2023-02-28T08:56:48;103408.97;;;5.45;100.00
55490;BME280;44029;52.956;4.772;2023-02-28T08:59:14;103401.03;;;5.33;100.00
55490;BME280;44029;52.956;4.772;2023-02-28T09:01:40;103404.16;;;5.56;100.00
55490;BME280;44029;52.956;4.772;2023-02-28T09:04:07;103399.75;;;5.73;100.00
55490;BME280;44029;52.956;4.772;2023-02-28T09:06:34;103411.63;;;5.54;100.00
55490;BME280;44029;52.956;4.772;2023-02-28T09:08:59;103408.53;;;5.67;100.00
55490;BME280;44029;52.956;4.772;2023-02-28T09:11:26;103406.69;;;5.86;100.00
55490;BME280;44029;52.956;4.772;2023-02-28T09:13:52;103408.22;;;5.88;100.00
55490;BME280;44029;52.956;4.772;2023-02-28T09:16:18;103414.34;;;5.90;100.00
55490;BME280;44029;52.956;4.772;2023-02-28T09:18:44;103409.09;;;5.71;100.00
55490;BME280;44029;52.956;4.772;2023-02-28T09:21:15;103404.97;;;5.67;100.00
55490;BME280;44029;52.956;4.772;2023-02-28T09:23:45;103408.47;;;5.59;100.00
55490;BME280;44029;52.956;4.772;2023-02-28T09:26:19;103412.25;;;5.48;100.00
55490;BME280;44029;52.956;4.772;2023-02-28T09:28:45;103408.28;;;5.42;100.00
55490;BME280;44029;52.956;4.772;2023-02-28T09:31:13;103395.22;;;5.64;100.00
55490;BME280;44029;52.956;4.772;2023-02-28T09:33:39;103395.59;;;5.51;100.00
55490;BME280;44029;52.956;4.772;2023-02-28T09:36:05;103397.59;;;5.59;100.00
55490;BME280;44029;52.956;4.772;2023-02-28T09:38:30;103390.19;;;5.23;100.00
55490;BME280;44029;52.956;4.772;2023-02-28T09:40:59;103399.03;;;5.35;100.00
55490;BME280;44029;52.956;4.772;2023-02-28T09:43:33;103394.00;;;5.40;100.00
55490;BME280;44029;52.956;4.772;2023-02-28T09:46:14;103393.38;;;5.47;100.00
55490;BME280;44029;52.956;4.772;2023-02-28T09:48:45;103395.41;;;5.80;100.00
55490;BME280;44029;52.956;4.772;2023-02-28T09:53:50;103393.72;;;5.97;100.00
55490;BME280;44029;52.956;4.772;2023-02-28T09:56:22;103382.28;;;6.12;100.00
55490;BME280;44029;52.956;4.772;2023-02-28T09:59:10;103384.44;;;6.26;100.00
55490;BME280;44029;52.956;4.772;2023-02-28T10:06:54;103398.59;;;6.12;100.00
55490;BME280;44029;52.956;4.772;2023-02-28T10:09:26;103393.22;;;5.84;100.00
55490;BME280;44029;52.956;4.772;2023-02-28T10:12:03;103381.97;;;6.15;100.00
55490;BME280;44029;52.956;4.772;2023-02-28T10:14:30;103391.94;;;6.06;100.00
55490;BME280;44029;52.956;4.772;2023-02-28T10:17:02;103392.94;;;6.05;100.00
55490;BME280;44029;52.956;4.772;2023-02-28T10:22:18;103409.25;;;5.87;100.00
55490;BME280;44029;52.956;4.772;2023-02-28T10:24:53;103394.00;;;5.76;100.00
55490;BME280;44029;52.956;4.772;2023-02-28T10:27:25;103407.25;;;6.07;100.00
55490;BME280;44029;52.956;4.772;2023-02-28T10:29:55;103398.84;;;6.18;100.00
55490;BME280;44029;52.956;4.772;2023-02-28T10:32:24;103392.50;;;6.36;100.00
55490;BME280;44029;52.956;4.772;2023-02-28T10:35:06;103387.53;;;6.57;100.00
55490;BME280;44029;52.956;4.772;2023-02-28T10:37:32;103391.25;;;6.56;100.00
55490;BME280;44029;52.956;4.772;2023-02-28T10:40:03;103392.34;;;6.37;100.00
55490;BME280;44029;52.956;4.772;2023-02-28T10:42:31;103396.28;;;6.69;100.00
55490;BME280;44029;52.956;4.772;2023-02-28T10:45:15;103397.84;;;6.72;100.00
55490;BME280;44029;52.956;4.772;2023-02-28T10:47:56;103401.69;;;6.61;100.00
55490;BME280;44029;52.956;4.772;2023-02-28T10:51:00;103401.16;;;6.31;100.00
55490;BME280;44029;52.956;4.772;2023-02-28T10:53:37;103399.44;;;6.12;100.00
55490;BME280;44029;52.956;4.772;2023-02-28T10:58:50;103400.38;;;6.21;100.00
55490;BME280;44029;52.956;4.772;2023-02-28T11:03:43;103398.75;;;6.10;100.00
55490;BME280;44029;52.956;4.772;2023-02-28T11:06:15;103390.72;;;6.53;100.00
55490;BME280;44029;52.956;4.772;2023-02-28T11:08:46;103391.22;;;6.74;100.00
55490;BME280;44029;52.956;4.772;2023-02-28T11:11:12;103392.06;;;6.49;100.00
55490;BME280;44029;52.956;4.772;2023-02-28T11:13:38;103389.22;;;6.58;100.00
55490;BME280;44029;52.956;4.772;2023-02-28T11:16:06;103388.03;;;6.87;100.00
55490;BME280;44029;52.956;4.772;2023-02-28T11:18:53;103389.84;;;6.70;100.00
55490;BME280;44029;52.956;4.772;2023-02-28T11:21:26;103377.00;;;6.89;100.00
55490;BME280;44029;52.956;4.772;2023-02-28T11:24:58;103377.69;;;6.91;100.00
55490;BME280;44029;52.956;4.772;2023-02-28T11:26:51;103376.31;;;6.61;100.00
55490;BME280;44029;52.956;4.772;2023-02-28T11:34:31;103369.59;;;7.15;100.00
55490;BME280;44029;52.956;4.772;2023-02-28T11:36:58;103357.84;;;7.23;100.00
55490;BME280;44029;52.956;4.772;2023-02-28T11:39:25;103352.09;;;7.34;100.00
55490;BME280;44029;52.956;4.772;2023-02-28T11:52:59;103339.69;;;7.48;100.00
55490;BME280;44029;52.956;4.772;2023-02-28T12:04:03;103338.00;;;6.96;100.00
55490;BME280;44029;52.956;4.772;2023-02-28T12:12:54;103330.84;;;7.87;100.00
55490;BME280;44029;52.956;4.772;2023-02-28T12:18:13;103326.56;;;8.09;100.00
55490;BME280;44029;52.956;4.772;2023-02-28T12:23:44;103316.09;;;8.38;100.00
55490;BME280;44029;52.956;4.772;2023-02-28T12:26:38;103328.59;;;8.24;100.00
55490;BME280;44029;52.956;4.772;2023-02-28T12:31:38;103312.38;;;8.22;100.00
55490;BME280;44029;52.956;4.772;2023-02-28T12:34:19;103312.38;;;8.22;100.00
55490;BME280;44029;52.956;4.772;2023-02-28T12:36:49;103318.50;;;8.16;100.00
55490;BME280;44029;52.956;4.772;2023-02-28T12:39:23;103313.06;;;8.16;100.00
55490;BME280;44029;52.956;4.772;2023-02-28T12:41:59;103319.66;;;8.55;100.00
55490;BME280;44029;52.956;4.772;2023-02-28T12:44:52;103313.41;;;8.13;100.00
55490;BME280;44029;52.956;4.772;2023-02-28T12:47:19;103326.41;;;7.86;100.00
55490;BME280;44029;52.956;4.772;2023-02-28T12:49:59;103325.19;;;7.81;100.00
55490;BME280;44029;52.956;4.772;2023-02-28T12:52:37;103318.91;;;7.80;100.00
55490;BME280;44029;52.956;4.772;2023-02-28T12:55:15;103324.53;;;7.87;100.00
55490;BME280;44029;52.956;4.772;2023-02-28T13:09:16;103306.94;;;7.40;100.00
55490;BME280;44029;52.956;4.772;2023-02-28T13:11:47;103313.78;;;7.77;100.00
55490;BME280;44029;52.956;4.772;2023-02-28T13:14:36;103303.22;;;7.74;100.00
55490;BME280;44029;52.956;4.772;2023-02-28T13:17:10;103299.97;;;8.03;100.00
55490;BME280;44029;52.956;4.772;2023-02-28T13:27:50;103287.16;;;8.04;100.00
55490;BME280;44029;52.956;4.772;2023-02-28T13:33:34;103275.22;;;8.69;100.00
55490;BME280;44029;52.956;4.772;2023-02-28T13:38:40;103284.38;;;8.28;100.00
55490;BME280;44029;52.956;4.772;2023-02-28T13:41:40;103288.09;;;8.44;100.00
55490;BME280;44029;52.956;4.772;2023-02-28T13:44:22;103297.78;;;8.63;100.00
55490;BME280;44029;52.956;4.772;2023-02-28T13:57:23;103277.44;;;8.74;100.00
55490;BME280;44029;52.956;4.772;2023-02-28T14:03:05;103278.78;;;8.69;100.00
55490;BME280;44029;52.956;4.772;2023-02-28T14:05:34;103280.41;;;8.39;100.00
55490;BME280;44029;52.956;4.772;2023-02-28T14:08:06;103278.72;;;8.46;100.00
55490;BME280;44029;52.956;4.772;2023-02-28T14:10:44;103274.69;;;8.01;100.00
55490;BME280;44029;52.956;4.772;2023-02-28T14:16:10;103277.47;;;7.85;100.00
55490;BME280;44029;52.956;4.772;2023-02-28T14:18:41;103284.44;;;7.87;100.00
55490;BME280;44029;52.956;4.772;2023-02-28T14:21:09;103276.59;;;7.68;100.00
55490;BME280;44029;52.956;4.772;2023-02-28T14:27:00;103279.16;;;7.69;100.00
55490;BME280;44029;52.956;4.772;2023-02-28T14:34:54;103279.84;;;7.63;100.00
55490;BME280;44029;52.956;4.772;2023-02-28T14:37:27;103285.13;;;7.48;100.00
55490;BME280;44029;52.956;4.772;2023-02-28T14:39:53;103283.75;;;7.36;100.00
55490;BME280;44029;52.956;4.772;2023-02-28T14:42:57;103277.13;;;7.47;100.00
55490;BME280;44029;52.956;4.772;2023-02-28T14:45:22;103283.75;;;7.28;100.00
55490;BME280;44029;52.956;4.772;2023-02-28T14:47:51;103282.22;;;7.33;100.00
55490;BME280;44029;52.956;4.772;2023-02-28T14:50:21;103283.22;;;7.24;100.00
55490;BME280;44029;52.956;4.772;2023-02-28T14:52:47;103283.13;;;6.83;100.00
55490;BME280;44029;52.956;4.772;2023-02-28T14:55:17;103280.56;;;6.82;100.00
55490;BME280;44029;52.956;4.772;2023-02-28T14:57:54;103278.00;;;6.80;100.00
55490;BME280;44029;52.956;4.772;2023-02-28T15:00:26;103278.47;;;6.75;100.00
55490;BME280;44029;52.956;4.772;2023-02-28T15:02:52;103281.91;;;6.77;100.00
55490;BME280;44029;52.956;4.772;2023-02-28T15:07:48;103282.53;;;6.63;100.00
55490;BME280;44029;52.956;4.772;2023-02-28T15:10:21;103292.97;;;6.76;100.00
55490;BME280;44029;52.956;4.772;2023-02-28T15:13:11;103284.06;;;6.57;100.00
55490;BME280;44029;52.956;4.772;2023-02-28T15:16:04;103288.22;;;6.44;100.00
55490;BME280;44029;52.956;4.772;2023-02-28T15:18:48;103280.97;;;6.52;100.00